sensor_id;sensor_type;location;lat;lon;timestamp;P1;durP1;ratioP1;P2;durP2;ratioP2
35971;SDS011;22052;0.000;0.000;2023-07-29T00:01:35;3.80;;;0.77;;
35971;SDS011;22052;0.000;0.000;2023-07-29T00:04:01;4.43;;;1.00;;
35971;SDS011;22052;0.000;0.000;2023-07-29T00:06:27;3.88;;;0.88;;
35971;SDS011;22052;0.000;0.000;2023-07-29T00:08:53;2.60;;;0.90;;
35971;SDS011;22052;0.000;0.000;2023-07-29T00:11:20;3.65;;;0.93;;
35971;SDS011;22052;0.000;0.000;2023-07-29T00:13:46;2.35;;;0.80;;
35971;SDS011;22052;0.000;0.000;2023-07-29T00:16:12;2.03;;;0.75;;
35971;SDS011;22052;0.000;0.000;2023-07-29T00:18:40;3.30;;;0.70;;
35971;SDS011;22052;0.000;0.000;2023-07-29T00:21:06;2.28;;;0.80;;
35971;SDS011;22052;0.000;0.000;2023-07-29T00:23:32;2.92;;;1.00;;
35971;SDS011;22052;0.000;0.000;2023-07-29T00:25:59;3.55;;;1.00;;
35971;SDS011;22052;0.000;0.000;2023-07-29T00:28:25;5.78;;;1.15;;
35971;SDS011;22052;0.000;0.000;2023-07-29T00:30:51;2.05;;;0.80;;
35971;SDS011;22052;0.000;0.000;2023-07-29T00:33:17;4.72;;;0.93;;
35971;SDS011;22052;0.000;0.000;2023-07-29T00:35:44;1.95;;;0.77;;
35971;SDS011;22052;0.000;0.000;2023-07-29T00:38:10;1.95;;;0.90;;
35971;SDS011;22052;0.000;0.000;2023-07-29T00:40:36;2.72;;;0.95;;
35971;SDS011;22052;0.000;0.000;2023-07-29T00:43:03;3.08;;;1.20;;
35971;SDS011;22052;0.000;0.000;2023-07-29T00:45:29;2.33;;;0.90;;
35971;SDS011;22052;0.000;0.000;2023-07-29T00:47:56;2.22;;;0.90;;
35971;SDS011;22052;0.000;0.000;2023-07-29T00:50:22;1.92;;;0.90;;
35971;SDS011;22052;0.000;0.000;2023-07-29T00:52:49;1.42;;;0.77;;
35971;SDS011;22052;0.000;0.000;2023-07-29T00:55:15;2.00;;;0.90;;
35971;SDS011;22052;0.000;0.000;2023-07-29T00:57:41;3.08;;;0.82;;
35971;SDS011;22052;0.000;0.000;2023-07-29T01:00:10;2.63;;;0.90;;
35971;SDS011;22052;0.000;0.000;2023-07-29T01:02:36;4.13;;;0.82;;
35971;SDS011;22052;0.000;0.000;2023-07-29T01:05:02;2.47;;;0.73;;
35971;SDS011;22052;0.000;0.000;2023-07-29T01:10:06;1.80;;;0.80;;
35971;SDS011;22052;0.000;0.000;2023-07-29T01:12:38;1.65;;;0.68;;
35971;SDS011;22052;0.000;0.000;2023-07-29T01:15:13;3.60;;;0.75;;
35971;SDS011;22052;0.000;0.000;2023-07-29T01:17:42;2.10;;;0.70;;
35971;SDS011;22052;0.000;0.000;2023-07-29T01:20:13;1.20;;;0.70;;
35971;SDS011;22052;0.000;0.000;2023-07-29T01:22:40;2.55;;;0.80;;
35971;SDS011;22052;0.000;0.000;2023-07-29T01:25:06;3.28;;;0.90;;
35971;SDS011;22052;0.000;0.000;2023-07-29T01:27:32;2.45;;;0.90;;
35971;SDS011;22052;0.000;0.000;2023-07-29T01:29:58;3.10;;;0.82;;
35971;SDS011;22052;0.000;0.000;2023-07-29T01:37:44;2.08;;;0.75;;
35971;SDS011;22052;0.000;0.000;2023-07-29T01:40:12;2.53;;;0.90;;
35971;SDS011;22052;0.000;0.000;2023-07-29T01:42:38;2.30;;;0.88;;
35971;SDS011;22052;0.000;0.000;2023-07-29T01:45:05;1.63;;;0.85;;
35971;SDS011;22052;0.000;0.000;2023-07-29T01:47:31;2.55;;;0.80;;
35971;SDS011;22052;0.000;0.000;2023-07-29T01:49:57;1.77;;;0.70;;
35971;SDS011;22052;0.000;0.000;2023-07-29T01:52:23;3.50;;;0.80;;
35971;SDS011;22052;0.000;0.000;2023-07-29T01:54:49;3.88;;;0.70;;
35971;SDS011;22052;0.000;0.000;2023-07-29T01:57:15;2.13;;;0.85;;
35971;SDS011;22052;0.000;0.000;2023-07-29T01:59:41;2.65;;;0.82;;
35971;SDS011;22052;0.000;0.000;2023-07-29T02:02:07;1.63;;;0.68;;
35971;SDS011;22052;0.000;0.000;2023-07-29T02:04:33;3.47;;;0.95;;
35971;SDS011;22052;0.000;0.000;2023-07-29T02:07:00;5.15;;;1.13;;
35971;SDS011;22052;0.000;0.000;2023-07-29T02:09:26;2.17;;;0.80;;
35971;SDS011;22052;0.000;0.000;2023-07-29T02:11:52;3.85;;;0.80;;
35971;SDS011;22052;0.000;0.000;2023-07-29T02:14:18;2.13;;;0.80;;
35971;SDS011;22052;0.000;0.000;2023-07-29T02:16:44;2.88;;;0.82;;
35971;SDS011;22052;0.000;0.000;2023-07-29T02:19:10;1.23;;;0.75;;
35971;SDS011;22052;0.000;0.000;2023-07-29T02:21:37;0.98;;;0.65;;
35971;SDS011;22052;0.000;0.000;2023-07-29T02:24:03;2.70;;;0.90;;
35971;SDS011;22052;0.000;0.000;2023-07-29T02:26:30;7.15;;;1.02;;
35971;SDS011;22052;0.000;0.000;2023-07-29T02:28:56;4.18;;;0.80;;
35971;SDS011;22052;0.000;0.000;2023-07-29T02:31:22;1.85;;;0.80;;
35971;SDS011;22052;0.000;0.000;2023-07-29T02:33:49;2.30;;;0.77;;
35971;SDS011;22052;0.000;0.000;2023-07-29T02:36:15;2.40;;;1.10;;
35971;SDS011;22052;0.000;0.000;2023-07-29T02:38:41;2.15;;;0.70;;
35971;SDS011;22052;0.000;0.000;2023-07-29T02:41:08;2.00;;;0.68;;
35971;SDS011;22052;0.000;0.000;2023-07-29T02:43:35;2.28;;;0.82;;
35971;SDS011;22052;0.000;0.000;2023-07-29T02:46:01;3.08;;;0.80;;
35971;SDS011;22052;0.000;0.000;2023-07-29T02:48:28;1.33;;;0.70;;
35971;SDS011;22052;0.000;0.000;2023-07-29T02:50:54;1.40;;;0.75;;
35971;SDS011;22052;0.000;0.000;2023-07-29T02:53:21;2.03;;;0.70;;
35971;SDS011;22052;0.000;0.000;2023-07-29T02:55:48;1.52;;;0.68;;
35971;SDS011;22052;0.000;0.000;2023-07-29T02:58:14;2.42;;;0.70;;
35971;SDS011;22052;0.000;0.000;2023-07-29T03:00:40;1.42;;;0.43;;
35971;SDS011;22052;0.000;0.000;2023-07-29T03:03:09;1.65;;;0.60;;
35971;SDS011;22052;0.000;0.000;2023-07-29T03:05:35;1.75;;;0.60;;
35971;SDS011;22052;0.000;0.000;2023-07-29T03:08:03;1.13;;;0.50;;
35971;SDS011;22052;0.000;0.000;2023-07-29T03:10:29;2.17;;;0.75;;
35971;SDS011;22052;0.000;0.000;2023-07-29T03:12:56;0.90;;;0.47;;
35971;SDS011;22052;0.000;0.000;2023-07-29T03:15:25;1.25;;;0.77;;
35971;SDS011;22052;0.000;0.000;2023-07-29T03:17:52;0.90;;;0.68;;
35971;SDS011;22052;0.000;0.000;2023-07-29T03:20:19;0.60;;;0.40;;
35971;SDS011;22052;0.000;0.000;2023-07-29T03:22:45;1.23;;;0.68;;
35971;SDS011;22052;0.000;0.000;2023-07-29T03:25:11;0.85;;;0.45;;
35971;SDS011;22052;0.000;0.000;2023-07-29T03:27:37;0.80;;;0.50;;
35971;SDS011;22052;0.000;0.000;2023-07-29T03:30:05;1.15;;;0.55;;
35971;SDS011;22052;0.000;0.000;2023-07-29T03:32:32;1.33;;;0.60;;
35971;SDS011;22052;0.000;0.000;2023-07-29T03:34:58;1.63;;;0.60;;
35971;SDS011;22052;0.000;0.000;2023-07-29T03:37:24;0.75;;;0.43;;
35971;SDS011;22052;0.000;0.000;2023-07-29T03:39:50;1.80;;;0.60;;
35971;SDS011;22052;0.000;0.000;2023-07-29T03:42:17;0.88;;;0.50;;
35971;SDS011;22052;0.000;0.000;2023-07-29T03:44:43;1.13;;;0.50;;
35971;SDS011;22052;0.000;0.000;2023-07-29T03:47:09;0.85;;;0.50;;
35971;SDS011;22052;0.000;0.000;2023-07-29T03:49:35;1.10;;;0.60;;
35971;SDS011;22052;0.000;0.000;2023-07-29T03:52:01;1.25;;;0.60;;
35971;SDS011;22052;0.000;0.000;2023-07-29T03:54:28;1.33;;;0.75;;
35971;SDS011;22052;0.000;0.000;2023-07-29T03:56:54;1.00;;;0.55;;
35971;SDS011;22052;0.000;0.000;2023-07-29T03:59:20;1.73;;;0.60;;
35971;SDS011;22052;0.000;0.000;2023-07-29T04:01:48;1.00;;;0.50;;
35971;SDS011;22052;0.000;0.000;2023-07-29T04:04:14;1.58;;;0.47;;
35971;SDS011;22052;0.000;0.000;2023-07-29T04:06:40;1.00;;;0.52;;
35971;SDS011;22052;0.000;0.000;2023-07-29T04:09:06;0.63;;;0.40;;
35971;SDS011;22052;0.000;0.000;2023-07-29T04:11:33;1.00;;;0.50;;
35971;SDS011;22052;0.000;0.000;2023-07-29T04:13:59;1.88;;;0.50;;
35971;SDS011;22052;0.000;0.000;2023-07-29T04:16:25;1.25;;;0.52;;
35971;SDS011;22052;0.000;0.000;2023-07-29T04:18:51;1.05;;;0.50;;
35971;SDS011;22052;0.000;0.000;2023-07-29T04:21:17;1.02;;;0.50;;
35971;SDS011;22052;0.000;0.000;2023-07-29T04:23:43;1.73;;;0.50;;
35971;SDS011;22052;0.000;0.000;2023-07-29T04:26:09;1.27;;;0.50;;
35971;SDS011;22052;0.000;0.000;2023-07-29T04:28:36;1.05;;;0.50;;
35971;SDS011;22052;0.000;0.000;2023-07-29T04:31:02;1.02;;;0.52;;
35971;SDS011;22052;0.000;0.000;2023-07-29T04:33:31;1.02;;;0.45;;
35971;SDS011;22052;0.000;0.000;2023-07-29T04:35:57;1.25;;;0.50;;
35971;SDS011;22052;0.000;0.000;2023-07-29T04:38:25;0.50;;;0.40;;
35971;SDS011;22052;0.000;0.000;2023-07-29T04:40:52;0.98;;;0.43;;
35971;SDS011;22052;0.000;0.000;2023-07-29T04:43:18;0.93;;;0.50;;
35971;SDS011;22052;0.000;0.000;2023-07-29T04:45:44;1.30;;;0.60;;
35971;SDS011;22052;0.000;0.000;2023-07-29T04:48:10;1.50;;;0.73;;
35971;SDS011;22052;0.000;0.000;2023-07-29T04:50:36;0.90;;;0.45;;
35971;SDS011;22052;0.000;0.000;2023-07-29T04:53:02;1.27;;;0.40;;
35971;SDS011;22052;0.000;0.000;2023-07-29T04:55:28;0.70;;;0.38;;
35971;SDS011;22052;0.000;0.000;2023-07-29T04:57:55;0.65;;;0.40;;
35971;SDS011;22052;0.000;0.000;2023-07-29T05:00:21;0.88;;;0.50;;
35971;SDS011;22052;0.000;0.000;2023-07-29T05:02:47;1.35;;;0.55;;
35971;SDS011;22052;0.000;0.000;2023-07-29T05:05:13;1.55;;;0.50;;
35971;SDS011;22052;0.000;0.000;2023-07-29T05:07:39;2.10;;;0.50;;
35971;SDS011;22052;0.000;0.000;2023-07-29T05:10:06;0.93;;;0.50;;
35971;SDS011;22052;0.000;0.000;2023-07-29T05:12:32;1.33;;;0.60;;
35971;SDS011;22052;0.000;0.000;2023-07-29T05:14:58;1.63;;;0.50;;
35971;SDS011;22052;0.000;0.000;2023-07-29T05:17:25;1.23;;;0.50;;
35971;SDS011;22052;0.000;0.000;2023-07-29T05:19:51;1.35;;;0.52;;
35971;SDS011;22052;0.000;0.000;2023-07-29T05:22:17;0.73;;;0.50;;
35971;SDS011;22052;0.000;0.000;2023-07-29T05:24:43;1.08;;;0.50;;
35971;SDS011;22052;0.000;0.000;2023-07-29T05:27:09;0.77;;;0.30;;
35971;SDS011;22052;0.000;0.000;2023-07-29T05:29:35;0.85;;;0.40;;
35971;SDS011;22052;0.000;0.000;2023-07-29T05:32:01;0.68;;;0.40;;
35971;SDS011;22052;0.000;0.000;2023-07-29T05:34:27;0.98;;;0.52;;
35971;SDS011;22052;0.000;0.000;2023-07-29T05:36:53;0.75;;;0.30;;
35971;SDS011;22052;0.000;0.000;2023-07-29T05:39:20;1.08;;;0.40;;
35971;SDS011;22052;0.000;0.000;2023-07-29T05:41:46;0.50;;;0.38;;
35971;SDS011;22052;0.000;0.000;2023-07-29T05:44:12;0.77;;;0.50;;
35971;SDS011;22052;0.000;0.000;2023-07-29T05:46:38;0.85;;;0.40;;
35971;SDS011;22052;0.000;0.000;2023-07-29T05:49:04;0.60;;;0.30;;
35971;SDS011;22052;0.000;0.000;2023-07-29T05:51:30;0.73;;;0.40;;
35971;SDS011;22052;0.000;0.000;2023-07-29T05:53:56;0.50;;;0.40;;
35971;SDS011;22052;0.000;0.000;2023-07-29T05:56:22;0.77;;;0.45;;
35971;SDS011;22052;0.000;0.000;2023-07-29T05:58:48;1.38;;;0.40;;
35971;SDS011;22052;0.000;0.000;2023-07-29T06:01:15;1.52;;;0.70;;
35971;SDS011;22052;0.000;0.000;2023-07-29T06:03:41;1.48;;;0.60;;
35971;SDS011;22052;0.000;0.000;2023-07-29T06:06:07;0.82;;;0.50;;
35971;SDS011;22052;0.000;0.000;2023-07-29T06:08:33;0.88;;;0.50;;
35971;SDS011;22052;0.000;0.000;2023-07-29T06:10:59;0.68;;;0.40;;
35971;SDS011;22052;0.000;0.000;2023-07-29T06:13:26;0.98;;;0.60;;
35971;SDS011;22052;0.000;0.000;2023-07-29T06:15:52;0.95;;;0.47;;
35971;SDS011;22052;0.000;0.000;2023-07-29T06:18:18;1.63;;;0.50;;
35971;SDS011;22052;0.000;0.000;2023-07-29T06:20:44;0.30;;;0.30;;
35971;SDS011;22052;0.000;0.000;2023-07-29T06:23:10;0.85;;;0.60;;
35971;SDS011;22052;0.000;0.000;2023-07-29T06:25:36;1.13;;;0.52;;
35971;SDS011;22052;0.000;0.000;2023-07-29T06:28:03;0.88;;;0.40;;
35971;SDS011;22052;0.000;0.000;2023-07-29T06:30:29;0.50;;;0.40;;
35971;SDS011;22052;0.000;0.000;2023-07-29T06:32:56;1.20;;;0.50;;
35971;SDS011;22052;0.000;0.000;2023-07-29T06:35:22;0.93;;;0.50;;
35971;SDS011;22052;0.000;0.000;2023-07-29T06:37:48;0.68;;;0.40;;
35971;SDS011;22052;0.000;0.000;2023-07-29T06:40:15;0.85;;;0.45;;
35971;SDS011;22052;0.000;0.000;2023-07-29T06:42:41;1.17;;;0.60;;
35971;SDS011;22052;0.000;0.000;2023-07-29T06:45:07;1.05;;;0.40;;
35971;SDS011;22052;0.000;0.000;2023-07-29T06:47:33;1.13;;;0.50;;
35971;SDS011;22052;0.000;0.000;2023-07-29T06:49:59;0.50;;;0.30;;
35971;SDS011;22052;0.000;0.000;2023-07-29T06:52:26;0.55;;;0.40;;
35971;SDS011;22052;0.000;0.000;2023-07-29T06:54:52;0.90;;;0.40;;
35971;SDS011;22052;0.000;0.000;2023-07-29T06:57:18;0.95;;;0.35;;
35971;SDS011;22052;0.000;0.000;2023-07-29T06:59:44;0.40;;;0.40;;
35971;SDS011;22052;0.000;0.000;2023-07-29T07:02:10;0.80;;;0.50;;
35971;SDS011;22052;0.000;0.000;2023-07-29T07:04:36;1.02;;;0.50;;
35971;SDS011;22052;0.000;0.000;2023-07-29T07:07:02;1.08;;;0.60;;
35971;SDS011;22052;0.000;0.000;2023-07-29T07:09:29;1.00;;;0.50;;
35971;SDS011;22052;0.000;0.000;2023-07-29T07:11:55;0.80;;;0.40;;
35971;SDS011;22052;0.000;0.000;2023-07-29T07:14:21;0.63;;;0.45;;
35971;SDS011;22052;0.000;0.000;2023-07-29T07:16:47;0.73;;;0.43;;
35971;SDS011;22052;0.000;0.000;2023-07-29T07:19:13;0.95;;;0.40;;
35971;SDS011;22052;0.000;0.000;2023-07-29T07:21:39;0.82;;;0.45;;
35971;SDS011;22052;0.000;0.000;2023-07-29T07:24:05;0.30;;;0.30;;
35971;SDS011;22052;0.000;0.000;2023-07-29T07:26:32;1.30;;;0.40;;
35971;SDS011;22052;0.000;0.000;2023-07-29T07:28:58;0.40;;;0.30;;
35971;SDS011;22052;0.000;0.000;2023-07-29T07:31:24;1.00;;;0.40;;
35971;SDS011;22052;0.000;0.000;2023-07-29T07:33:50;0.60;;;0.32;;
35971;SDS011;22052;0.000;0.000;2023-07-29T07:36:16;0.90;;;0.40;;
35971;SDS011;22052;0.000;0.000;2023-07-29T07:38:43;1.48;;;0.40;;
35971;SDS011;22052;0.000;0.000;2023-07-29T07:41:09;0.82;;;0.32;;
35971;SDS011;22052;0.000;0.000;2023-07-29T07:43:35;0.40;;;0.30;;
35971;SDS011;22052;0.000;0.000;2023-07-29T07:46:01;1.02;;;0.30;;
35971;SDS011;22052;0.000;0.000;2023-07-29T07:48:27;1.00;;;0.40;;
35971;SDS011;22052;0.000;0.000;2023-07-29T07:50:54;0.90;;;0.32;;
35971;SDS011;22052;0.000;0.000;2023-07-29T07:53:20;1.27;;;0.60;;
35971;SDS011;22052;0.000;0.000;2023-07-29T07:55:46;1.05;;;0.30;;
35971;SDS011;22052;0.000;0.000;2023-07-29T07:58:12;1.23;;;0.40;;
35971;SDS011;22052;0.000;0.000;2023-07-29T08:00:38;0.32;;;0.32;;
35971;SDS011;22052;0.000;0.000;2023-07-29T08:03:05;0.50;;;0.38;;
35971;SDS011;22052;0.000;0.000;2023-07-29T08:05:31;0.30;;;0.20;;
35971;SDS011;22052;0.000;0.000;2023-07-29T08:07:57;0.90;;;0.35;;
35971;SDS011;22052;0.000;0.000;2023-07-29T08:10:23;0.47;;;0.30;;
35971;SDS011;22052;0.000;0.000;2023-07-29T08:12:49;0.38;;;0.20;;
35971;SDS011;22052;0.000;0.000;2023-07-29T08:15:15;0.40;;;0.38;;
35971;SDS011;22052;0.000;0.000;2023-07-29T08:17:42;0.32;;;0.32;;
35971;SDS011;22052;0.000;0.000;2023-07-29T08:20:08;0.57;;;0.40;;
35971;SDS011;22052;0.000;0.000;2023-07-29T08:22:34;1.08;;;0.30;;
35971;SDS011;22052;0.000;0.000;2023-07-29T08:25:00;0.68;;;0.40;;
35971;SDS011;22052;0.000;0.000;2023-07-29T08:27:27;1.08;;;0.30;;
35971;SDS011;22052;0.000;0.000;2023-07-29T08:29:53;0.90;;;0.32;;
35971;SDS011;22052;0.000;0.000;2023-07-29T08:32:20;0.32;;;0.30;;
35971;SDS011;22052;0.000;0.000;2023-07-29T08:34:46;0.60;;;0.30;;
35971;SDS011;22052;0.000;0.000;2023-07-29T08:37:12;0.68;;;0.50;;
35971;SDS011;22052;0.000;0.000;2023-07-29T08:39:38;0.45;;;0.30;;
35971;SDS011;22052;0.000;0.000;2023-07-29T08:42:04;0.40;;;0.40;;
35971;SDS011;22052;0.000;0.000;2023-07-29T08:44:41;0.30;;;0.30;;
35971;SDS011;22052;0.000;0.000;2023-07-29T08:47:08;0.63;;;0.30;;
35971;SDS011;22052;0.000;0.000;2023-07-29T08:49:35;0.30;;;0.30;;
35971;SDS011;22052;0.000;0.000;2023-07-29T08:52:01;0.40;;;0.30;;
35971;SDS011;22052;0.000;0.000;2023-07-29T08:54:28;0.80;;;0.40;;
35971;SDS011;22052;0.000;0.000;2023-07-29T08:56:54;0.50;;;0.20;;
35971;SDS011;22052;0.000;0.000;2023-07-29T08:59:20;0.50;;;0.40;;
35971;SDS011;22052;0.000;0.000;2023-07-29T09:01:47;0.35;;;0.30;;
35971;SDS011;22052;0.000;0.000;2023-07-29T09:04:13;0.47;;;0.30;;
35971;SDS011;22052;0.000;0.000;2023-07-29T09:06:39;0.20;;;0.20;;
35971;SDS011;22052;0.000;0.000;2023-07-29T09:09:07;0.30;;;0.30;;
35971;SDS011;22052;0.000;0.000;2023-07-29T09:11:35;1.10;;;0.30;;
35971;SDS011;22052;0.000;0.000;2023-07-29T09:14:01;0.73;;;0.35;;
35971;SDS011;22052;0.000;0.000;2023-07-29T09:16:27;0.50;;;0.40;;
35971;SDS011;22052;0.000;0.000;2023-07-29T09:18:53;0.52;;;0.30;;
35971;SDS011;22052;0.000;0.000;2023-07-29T09:21:23;0.63;;;0.30;;
35971;SDS011;22052;0.000;0.000;2023-07-29T09:23:53;0.38;;;0.30;;
35971;SDS011;22052;0.000;0.000;2023-07-29T09:26:23;0.25;;;0.22;;
35971;SDS011;22052;0.000;0.000;2023-07-29T09:28:51;0.43;;;0.30;;
35971;SDS011;22052;0.000;0.000;2023-07-29T09:31:24;0.43;;;0.30;;
35971;SDS011;22052;0.000;0.000;2023-07-29T09:36:16;0.35;;;0.30;;
35971;SDS011;22052;0.000;0.000;2023-07-29T09:38:43;0.50;;;0.30;;
35971;SDS011;22052;0.000;0.000;2023-07-29T09:41:11;0.50;;;0.30;;
35971;SDS011;22052;0.000;0.000;2023-07-29T09:43:39;0.50;;;0.30;;
35971;SDS011;22052;0.000;0.000;2023-07-29T09:46:05;0.40;;;0.30;;
35971;SDS011;22052;0.000;0.000;2023-07-29T09:48:34;0.50;;;0.30;;
35971;SDS011;22052;0.000;0.000;2023-07-29T09:51:10;0.60;;;0.30;;
35971;SDS011;22052;0.000;0.000;2023-07-29T09:53:43;0.50;;;0.38;;
35971;SDS011;22052;0.000;0.000;2023-07-29T09:56:10;1.65;;;0.35;;
35971;SDS011;22052;0.000;0.000;2023-07-29T09:58:36;0.73;;;0.30;;
35971;SDS011;22052;0.000;0.000;2023-07-29T10:01:06;0.40;;;0.28;;
35971;SDS011;22052;0.000;0.000;2023-07-29T10:03:33;1.35;;;0.30;;
35971;SDS011;22052;0.000;0.000;2023-07-29T10:06:00;0.20;;;0.20;;
35971;SDS011;22052;0.000;0.000;2023-07-29T10:08:28;0.45;;;0.30;;
35971;SDS011;22052;0.000;0.000;2023-07-29T10:10:56;0.77;;;0.40;;
35971;SDS011;22052;0.000;0.000;2023-07-29T10:13:24;0.75;;;0.40;;
35971;SDS011;22052;0.000;0.000;2023-07-29T10:15:50;0.93;;;0.45;;
35971;SDS011;22052;0.000;0.000;2023-07-29T10:18:17;0.45;;;0.38;;
35971;SDS011;22052;0.000;0.000;2023-07-29T10:20:44;1.23;;;0.45;;
35971;SDS011;22052;0.000;0.000;2023-07-29T10:23:10;0.55;;;0.50;;
35971;SDS011;22052;0.000;0.000;2023-07-29T10:25:43;0.40;;;0.30;;
35971;SDS011;22052;0.000;0.000;2023-07-29T10:28:10;0.40;;;0.40;;
35971;SDS011;22052;0.000;0.000;2023-07-29T10:30:38;0.40;;;0.40;;
35971;SDS011;22052;0.000;0.000;2023-07-29T10:33:04;0.60;;;0.43;;
35971;SDS011;22052;0.000;0.000;2023-07-29T10:35:34;0.75;;;0.40;;
35971;SDS011;22052;0.000;0.000;2023-07-29T10:38:01;0.70;;;0.60;;
35971;SDS011;22052;0.000;0.000;2023-07-29T10:40:42;2.00;;;0.50;;
35971;SDS011;22052;0.000;0.000;2023-07-29T10:43:10;1.15;;;0.50;;
35971;SDS011;22052;0.000;0.000;2023-07-29T10:45:37;1.10;;;0.63;;
35971;SDS011;22052;0.000;0.000;2023-07-29T10:48:09;2.50;;;0.60;;
35971;SDS011;22052;0.000;0.000;2023-07-29T10:50:36;1.05;;;0.50;;
35971;SDS011;22052;0.000;0.000;2023-07-29T10:53:02;1.45;;;0.63;;
35971;SDS011;22052;0.000;0.000;2023-07-29T10:55:35;1.95;;;0.52;;
35971;SDS011;22052;0.000;0.000;2023-07-29T10:58:15;0.85;;;0.40;;
35971;SDS011;22052;0.000;0.000;2023-07-29T11:00:43;0.43;;;0.40;;
35971;SDS011;22052;0.000;0.000;2023-07-29T11:03:10;0.80;;;0.50;;
35971;SDS011;22052;0.000;0.000;2023-07-29T11:05:47;0.47;;;0.40;;
35971;SDS011;22052;0.000;0.000;2023-07-29T11:10:43;0.82;;;0.55;;
35971;SDS011;22052;0.000;0.000;2023-07-29T11:13:09;0.85;;;0.50;;
35971;SDS011;22052;0.000;0.000;2023-07-29T11:15:37;0.88;;;0.40;;
35971;SDS011;22052;0.000;0.000;2023-07-29T11:18:04;0.60;;;0.50;;
35971;SDS011;22052;0.000;0.000;2023-07-29T11:20:31;0.70;;;0.50;;
35971;SDS011;22052;0.000;0.000;2023-07-29T11:22:58;0.85;;;0.52;;
35971;SDS011;22052;0.000;0.000;2023-07-29T11:25:25;1.00;;;0.60;;
35971;SDS011;22052;0.000;0.000;2023-07-29T11:27:52;1.98;;;0.63;;
35971;SDS011;22052;0.000;0.000;2023-07-29T11:30:19;0.65;;;0.50;;
35971;SDS011;22052;0.000;0.000;2023-07-29T11:32:45;0.98;;;0.50;;
35971;SDS011;22052;0.000;0.000;2023-07-29T11:35:12;1.10;;;0.40;;
35971;SDS011;22052;0.000;0.000;2023-07-29T11:37:40;1.17;;;0.70;;
35971;SDS011;22052;0.000;0.000;2023-07-29T11:40:06;0.40;;;0.30;;
35971;SDS011;22052;0.000;0.000;2023-07-29T11:42:35;1.45;;;0.60;;
35971;SDS011;22052;0.000;0.000;2023-07-29T11:45:04;0.55;;;0.47;;
35971;SDS011;22052;0.000;0.000;2023-07-29T11:47:35;0.68;;;0.50;;
35971;SDS011;22052;0.000;0.000;2023-07-29T11:50:04;0.63;;;0.38;;
35971;SDS011;22052;0.000;0.000;2023-07-29T11:52:34;0.88;;;0.60;;
35971;SDS011;22052;0.000;0.000;2023-07-29T11:55:01;0.88;;;0.60;;
35971;SDS011;22052;0.000;0.000;2023-07-29T11:57:28;0.80;;;0.40;;
35971;SDS011;22052;0.000;0.000;2023-07-29T11:59:54;1.00;;;0.50;;
35971;SDS011;22052;0.000;0.000;2023-07-29T12:02:21;0.63;;;0.50;;
35971;SDS011;22052;0.000;0.000;2023-07-29T12:04:49;0.63;;;0.40;;
35971;SDS011;22052;0.000;0.000;2023-07-29T12:07:16;0.32;;;0.30;;
35971;SDS011;22052;0.000;0.000;2023-07-29T12:09:43;0.70;;;0.55;;
35971;SDS011;22052;0.000;0.000;2023-07-29T12:12:09;1.45;;;0.70;;
35971;SDS011;22052;0.000;0.000;2023-07-29T12:14:36;0.60;;;0.60;;
35971;SDS011;22052;0.000;0.000;2023-07-29T12:17:02;0.60;;;0.40;;
35971;SDS011;22052;0.000;0.000;2023-07-29T12:19:32;0.88;;;0.40;;
35971;SDS011;22052;0.000;0.000;2023-07-29T12:22:00;1.17;;;0.65;;
35971;SDS011;22052;0.000;0.000;2023-07-29T12:24:26;0.95;;;0.50;;
35971;SDS011;22052;0.000;0.000;2023-07-29T12:26:52;1.55;;;0.50;;
35971;SDS011;22052;0.000;0.000;2023-07-29T12:29:18;0.52;;;0.50;;
35971;SDS011;22052;0.000;0.000;2023-07-29T12:31:45;1.25;;;0.73;;
35971;SDS011;22052;0.000;0.000;2023-07-29T12:34:20;0.82;;;0.50;;
35971;SDS011;22052;0.000;0.000;2023-07-29T12:36:50;0.43;;;0.43;;
35971;SDS011;22052;0.000;0.000;2023-07-29T12:41:43;0.80;;;0.60;;
35971;SDS011;22052;0.000;0.000;2023-07-29T12:44:09;1.85;;;0.55;;
35971;SDS011;22052;0.000;0.000;2023-07-29T12:46:35;0.77;;;0.40;;
35971;SDS011;22052;0.000;0.000;2023-07-29T12:49:01;1.02;;;0.52;;
35971;SDS011;22052;0.000;0.000;2023-07-29T12:51:27;0.95;;;0.65;;
35971;SDS011;22052;0.000;0.000;2023-07-29T12:53:53;0.98;;;0.50;;
35971;SDS011;22052;0.000;0.000;2023-07-29T12:56:20;0.40;;;0.38;;
35971;SDS011;22052;0.000;0.000;2023-07-29T12:58:46;0.63;;;0.45;;
35971;SDS011;22052;0.000;0.000;2023-07-29T13:01:12;0.90;;;0.60;;
35971;SDS011;22052;0.000;0.000;2023-07-29T13:03:42;0.30;;;0.30;;
35971;SDS011;22052;0.000;0.000;2023-07-29T13:06:08;0.80;;;0.40;;
35971;SDS011;22052;0.000;0.000;2023-07-29T13:08:34;0.32;;;0.32;;
35971;SDS011;22052;0.000;0.000;2023-07-29T13:11:00;0.70;;;0.50;;
35971;SDS011;22052;0.000;0.000;2023-07-29T13:13:26;0.47;;;0.40;;
35971;SDS011;22052;0.000;0.000;2023-07-29T13:15:52;0.82;;;0.50;;
35971;SDS011;22052;0.000;0.000;2023-07-29T13:18:18;1.02;;;0.60;;
35971;SDS011;22052;0.000;0.000;2023-07-29T13:20:45;0.95;;;0.50;;
35971;SDS011;22052;0.000;0.000;2023-07-29T13:23:11;1.33;;;0.52;;
35971;SDS011;22052;0.000;0.000;2023-07-29T13:25:37;0.50;;;0.40;;
35971;SDS011;22052;0.000;0.000;2023-07-29T13:28:03;0.82;;;0.60;;
35971;SDS011;22052;0.000;0.000;2023-07-29T13:30:30;0.60;;;0.50;;
35971;SDS011;22052;0.000;0.000;2023-07-29T13:32:56;0.60;;;0.50;;
35971;SDS011;22052;0.000;0.000;2023-07-29T13:35:22;0.50;;;0.40;;
35971;SDS011;22052;0.000;0.000;2023-07-29T13:37:48;1.20;;;0.60;;
35971;SDS011;22052;0.000;0.000;2023-07-29T13:40:14;0.55;;;0.50;;
35971;SDS011;22052;0.000;0.000;2023-07-29T13:42:41;0.52;;;0.50;;
35971;SDS011;22052;0.000;0.000;2023-07-29T13:45:07;0.57;;;0.45;;
35971;SDS011;22052;0.000;0.000;2023-07-29T13:47:33;0.80;;;0.50;;
35971;SDS011;22052;0.000;0.000;2023-07-29T13:50:00;0.73;;;0.45;;
35971;SDS011;22052;0.000;0.000;2023-07-29T13:52:26;0.70;;;0.52;;
35971;SDS011;22052;0.000;0.000;2023-07-29T13:54:52;0.73;;;0.63;;
35971;SDS011;22052;0.000;0.000;2023-07-29T13:57:18;0.50;;;0.50;;
35971;SDS011;22052;0.000;0.000;2023-07-29T13:59:44;0.60;;;0.50;;
35971;SDS011;22052;0.000;0.000;2023-07-29T14:02:10;1.00;;;0.60;;
35971;SDS011;22052;0.000;0.000;2023-07-29T14:04:36;0.50;;;0.50;;
35971;SDS011;22052;0.000;0.000;2023-07-29T14:07:02;0.45;;;0.40;;
35971;SDS011;22052;0.000;0.000;2023-07-29T14:09:28;0.65;;;0.57;;
35971;SDS011;22052;0.000;0.000;2023-07-29T14:11:55;1.55;;;0.60;;
35971;SDS011;22052;0.000;0.000;2023-07-29T14:14:21;0.65;;;0.50;;
35971;SDS011;22052;0.000;0.000;2023-07-29T14:16:47;1.45;;;0.70;;
35971;SDS011;22052;0.000;0.000;2023-07-29T14:19:14;0.60;;;0.45;;
35971;SDS011;22052;0.000;0.000;2023-07-29T14:21:40;0.85;;;0.45;;
35971;SDS011;22052;0.000;0.000;2023-07-29T14:24:06;0.47;;;0.43;;
35971;SDS011;22052;0.000;0.000;2023-07-29T14:26:32;1.27;;;0.68;;
35971;SDS011;22052;0.000;0.000;2023-07-29T14:28:58;1.23;;;0.70;;
35971;SDS011;22052;0.000;0.000;2023-07-29T14:31:24;0.47;;;0.47;;
35971;SDS011;22052;0.000;0.000;2023-07-29T14:33:50;0.65;;;0.50;;
35971;SDS011;22052;0.000;0.000;2023-07-29T14:36:17;0.47;;;0.45;;
35971;SDS011;22052;0.000;0.000;2023-07-29T14:38:43;0.77;;;0.50;;
35971;SDS011;22052;0.000;0.000;2023-07-29T14:41:09;0.40;;;0.40;;
35971;SDS011;22052;0.000;0.000;2023-07-29T14:43:35;0.45;;;0.40;;
35971;SDS011;22052;0.000;0.000;2023-07-29T14:46:01;1.05;;;0.50;;
35971;SDS011;22052;0.000;0.000;2023-07-29T14:48:28;1.00;;;0.50;;
35971;SDS011;22052;0.000;0.000;2023-07-29T14:50:55;0.52;;;0.43;;
35971;SDS011;22052;0.000;0.000;2023-07-29T14:53:21;0.65;;;0.50;;
35971;SDS011;22052;0.000;0.000;2023-07-29T14:55:47;0.55;;;0.40;;
35971;SDS011;22052;0.000;0.000;2023-07-29T14:58:13;0.60;;;0.60;;
35971;SDS011;22052;0.000;0.000;2023-07-29T15:00:39;0.55;;;0.40;;
35971;SDS011;22052;0.000;0.000;2023-07-29T15:03:05;0.50;;;0.43;;
35971;SDS011;22052;0.000;0.000;2023-07-29T15:05:32;0.68;;;0.50;;
35971;SDS011;22052;0.000;0.000;2023-07-29T15:07:58;0.85;;;0.43;;
35971;SDS011;22052;0.000;0.000;2023-07-29T15:10:24;0.47;;;0.47;;
35971;SDS011;22052;0.000;0.000;2023-07-29T15:12:51;0.45;;;0.45;;